Time;durP1;ratioP1;P1;durP2;ratioP2;P2;SDS_P1;SDS_P2;PMS_P1;PMS_P2;Temp;Humidity;BMP_temperature;BMP_pressure;BME280_temperature;BME280_humidity;BME280_pressure;Samples;Min_cycle;Max_cycle;Signal;HPM_P1;HPM_P2
2021/04/13 00:01:12;;;;;;;0.20;0.20;;;;;;;;;;5045389;28;20243;-72
2021/04/13 00:03:41;;;;;;;0.20;0.20;;;;;;;;;;5045323;28;20213;-72
2021/04/13 00:06:08;;;;;;;0.20;0.20;;;;;;;;;;5045648;28;20209;-72
2021/04/13 00:08:34;;;;;;;0.20;0.20;;;;;;;;;;5045957;28;20219;-71
2021/04/13 00:11:03;;;;;;;0.20;0.20;;;;;;;;;;5045733;28;20465;-72
2021/04/13 00:13:29;;;;;;;0.20;0.20;;;;;;;;;;5045595;28;20216;-72
2021/04/13 00:15:55;;;;;;;0.20;0.20;;;;;;;;;;5037806;28;20209;-72
2021/04/13 00:18:24;;;;;;;0.20;0.20;;;;;;;;;;5040908;28;20516;-72
2021/04/13 00:20:52;;;;;;;0.20;0.20;;;;;;;;;;5034747;28;20562;-72
2021/04/13 00:23:19;;;;;;;0.20;0.20;;;;;;;;;;5045640;28;20240;-72
2021/04/13 00:25:46;;;;;;;0.20;0.20;;;;;;;;;;5031440;28;20206;-72
2021/04/13 00:28:12;;;;;;;0.20;0.20;;;;;;;;;;5043710;28;20488;-73
2021/04/13 00:30:41;;;;;;;0.20;0.20;;;;;;;;;;5045117;28;20227;-73
2021/04/13 00:33:07;;;;;;;0.20;0.20;;;;;;;;;;5045444;28;20305;-72
2021/04/13 00:35:35;;;;;;;0.20;0.20;;;;;;;;;;5045429;28;20216;-72
2021/04/13 00:38:21;;;;;;;0.20;0.20;;;;;;;;;;5043913;28;20268;-73
2021/04/13 00:40:48;;;;;;;0.20;0.20;;;;;;;;;;5034396;28;20350;-73
2021/04/13 00:43:15;;;;;;;0.20;0.20;;;;;;;;;;5045389;28;20437;-73
2021/04/13 00:45:45;;;;;;;0.20;0.20;;;;;;;;;;5035311;28;20205;-73
2021/04/13 00:48:11;;;;;;;0.20;0.20;;;;;;;;;;5040329;28;20189;-74
2021/04/13 00:50:40;;;;;;;0.20;0.20;;;;;;;;;;5045310;28;20270;-72
2021/04/13 00:53:07;;;;;;;0.20;0.20;;;;;;;;;;5045488;28;20192;-75
2021/04/13 00:55:35;;;;;;;0.20;0.20;;;;;;;;;;5044760;28;20216;-73
2021/04/13 00:58:04;;;;;;;0.20;0.20;;;;;;;;;;5045379;28;20208;-73
2021/04/13 01:00:31;;;;;;;0.20;0.20;;;;;;;;;;5044936;28;20201;-72
2021/04/13 01:02:58;;;;;;;0.20;0.20;;;;;;;;;;5044879;28;20279;-72
2021/04/13 01:05:32;;;;;;;0.20;0.20;;;;;;;;;;5032698;28;20232;-73
2021/04/13 01:07:58;;;;;;;0.20;0.20;;;;;;;;;;5045019;28;20192;-73
2021/04/13 01:10:27;;;;;;;0.20;0.20;;;;;;;;;;5044554;28;20384;-73
2021/04/13 01:13:04;;;;;;;0.20;0.20;;;;;;;;;;5045291;28;20496;-73
2021/04/13 01:15:30;;;;;;;0.20;0.20;;;;;;;;;;5042343;28;20264;-71
2021/04/13 01:17:59;;;;;;;0.20;0.20;;;;;;;;;;5044991;28;20372;-71
2021/04/13 01:20:31;;;;;;;0.20;0.20;;;;;;;;;;5044922;28;20216;-71
2021/04/13 01:23:02;;;;;;;0.20;0.20;;;;;;;;;;5036483;28;20237;-72
2021/04/13 01:25:30;;;;;;;0.20;0.20;;;;;;;;;;5031984;28;20381;-72
2021/04/13 01:27:58;;;;;;;0.20;0.20;;;;;;;;;;5041271;28;20227;-72
2021/04/13 01:30:30;;;;;;;0.20;0.20;;;;;;;;;;5033090;28;20476;-72
2021/04/13 01:33:06;;;;;;;0.20;0.20;;;;;;;;;;5042773;28;20193;-72
2021/04/13 01:35:31;;;;;;;0.20;0.20;;;;;;;;;;5043461;28;20199;-73
2021/04/13 01:38:02;;;;;;;0.20;0.20;;;;;;;;;;5044412;28;20288;-73
2021/04/13 01:40:33;;;;;;;0.20;0.20;;;;;;;;;;5041580;28;20205;-72
2021/04/13 01:43:01;;;;;;;0.20;0.20;;;;;;;;;;5044252;28;20236;-73
2021/04/13 01:45:27;;;;;;;0.20;0.20;;;;;;;;;;5031045;28;20220;-73
2021/04/13 01:47:54;;;;;;;0.20;0.20;;;;;;;;;;5038848;28;20215;-73
2021/04/13 01:50:21;;;;;;;0.20;0.20;;;;;;;;;;5043852;28;20207;-73
2021/04/13 01:52:48;;;;;;;0.20;0.20;;;;;;;;;;5043690;28;20503;-73
2021/04/13 01:55:17;;;;;;;0.20;0.20;;;;;;;;;;5043797;28;20212;-73
2021/04/13 01:57:46;;;;;;;0.20;0.20;;;;;;;;;;5036575;28;20212;-73
2021/04/13 02:00:15;;;;;;;0.20;0.20;;;;;;;;;;5042063;28;20202;-73
2021/04/13 02:02:44;;;;;;;0.20;0.20;;;;;;;;;;5043992;28;20229;-73
2021/04/13 02:05:12;;;;;;;0.20;0.20;;;;;;;;;;5043908;28;20204;-72
2021/04/13 02:07:47;;;;;;;0.20;0.20;;;;;;;;;;5044167;28;20223;-73
2021/04/13 02:10:21;;;;;;;0.20;0.20;;;;;;;;;;5043781;28;20204;-73
2021/04/13 02:12:49;;;;;;;0.20;0.20;;;;;;;;;;5043781;28;20243;-73
2021/04/13 02:15:20;;;;;;;0.20;0.20;;;;;;;;;;5043310;28;20264;-72
2021/04/13 02:17:47;;;;;;;0.20;0.20;;;;;;;;;;5040397;28;20216;-73
2021/04/13 02:20:14;;;;;;;0.20;0.20;;;;;;;;;;5043690;28;20214;-73
2021/04/13 02:22:42;;;;;;;0.20;0.20;;;;;;;;;;5043767;28;20228;-73
2021/04/13 02:25:09;;;;;;;0.20;0.20;;;;;;;;;;5043455;28;20209;-72
2021/04/13 02:27:38;;;;;;;0.20;0.20;;;;;;;;;;5043422;28;20200;-73
2021/04/13 02:30:06;;;;;;;0.20;0.20;;;;;;;;;;5032096;28;20209;-73
2021/04/13 02:32:34;;;;;;;0.20;0.20;;;;;;;;;;5043746;28;20387;-72
2021/04/13 02:35:01;;;;;;;0.20;0.20;;;;;;;;;;5047455;28;20266;-72
2021/04/13 02:37:32;;;;;;;0.20;0.20;;;;;;;;;;5047127;28;20205;-73
2021/04/13 02:40:04;;;;;;;0.20;0.20;;;;;;;;;;5047170;28;20196;-72
2021/04/13 02:42:36;;;;;;;0.20;0.20;;;;;;;;;;5038694;28;20208;-73
2021/04/13 02:45:04;;;;;;;0.20;0.20;;;;;;;;;;5037381;28;20205;-72
2021/04/13 02:47:31;;;;;;;0.20;0.20;;;;;;;;;;5041784;28;20209;-72
2021/04/13 02:50:04;;;;;;;0.20;0.20;;;;;;;;;;5046818;28;20500;-73
2021/04/13 02:52:32;;;;;;;0.20;0.20;;;;;;;;;;5033231;28;20395;-73
2021/04/13 02:55:00;;;;;;;0.20;0.20;;;;;;;;;;5046782;28;20206;-73
2021/04/13 02:57:27;;;;;;;0.20;0.20;;;;;;;;;;5047206;28;20205;-73
2021/04/13 02:59:57;;;;;;;0.20;0.20;;;;;;;;;;5040366;28;20522;-72
2021/04/13 03:02:29;;;;;;;0.20;0.20;;;;;;;;;;5047046;28;20224;-73
2021/04/13 03:04:55;;;;;;;0.20;0.20;;;;;;;;;;5046988;28;20228;-72
2021/04/13 03:07:23;;;;;;;0.20;0.20;;;;;;;;;;5047522;28;20227;-72
2021/04/13 03:09:49;;;;;;;0.30;0.30;;;;;;;;;;5046569;28;20400;-72
2021/04/13 03:12:16;;;;;;;0.20;0.20;;;;;;;;;;5044530;28;20484;-73
2021/04/13 03:14:43;;;;;;;0.20;0.20;;;;;;;;;;5046495;28;20248;-73
2021/04/13 03:17:11;;;;;;;0.20;0.20;;;;;;;;;;5046151;28;20619;-73
2021/04/13 03:19:38;;;;;;;0.20;0.20;;;;;;;;;;5045997;28;20205;-72
2021/04/13 03:22:05;;;;;;;0.20;0.20;;;;;;;;;;5032357;28;20236;-72
2021/04/13 03:24:36;;;;;;;0.20;0.20;;;;;;;;;;5041822;28;20220;-72
2021/04/13 03:27:03;;;;;;;0.30;0.30;;;;;;;;;;5044209;28;20231;-73
2021/04/13 03:29:30;;;;;;;0.20;0.20;;;;;;;;;;5046233;28;20215;-73
2021/04/13 03:31:57;;;;;;;0.20;0.20;;;;;;;;;;5039369;28;20500;-73
2021/04/13 03:34:23;;;;;;;0.20;0.20;;;;;;;;;;5046460;28;20380;-73
2021/04/13 03:36:51;;;;;;;0.20;0.20;;;;;;;;;;5037612;28;20201;-72
2021/04/13 03:39:24;;;;;;;0.20;0.20;;;;;;;;;;5046266;28;20212;-72
2021/04/13 03:41:51;;;;;;;0.20;0.20;;;;;;;;;;5045906;28;20460;-71
2021/04/13 03:44:18;;;;;;;0.20;0.20;;;;;;;;;;5045386;28;20204;-72
2021/04/13 03:46:44;;;;;;;0.20;0.20;;;;;;;;;;5045518;28;20231;-72
2021/04/13 03:49:14;;;;;;;0.20;0.20;;;;;;;;;;5033203;28;20389;-73
2021/04/13 03:51:41;;;;;;;0.20;0.20;;;;;;;;;;5036702;28;20201;-73
2021/04/13 03:54:21;;;;;;;0.20;0.20;;;;;;;;;;5041128;28;20209;-72
2021/04/13 03:56:48;;;;;;;0.20;0.20;;;;;;;;;;5033373;28;20201;-72
2021/04/13 03:59:19;;;;;;;0.20;0.20;;;;;;;;;;5031608;28;20507;-72
2021/04/13 04:01:46;;;;;;;0.20;0.20;;;;;;;;;;5045955;28;20522;-72
2021/04/13 04:04:20;;;;;;;0.20;0.20;;;;;;;;;;5032595;28;20395;-72
2021/04/13 04:06:50;;;;;;;0.20;0.20;;;;;;;;;;5045861;28;20452;-72
2021/04/13 04:09:17;;;;;;;0.20;0.20;;;;;;;;;;5045724;28;20207;-72
2021/04/13 04:11:43;;;;;;;0.20;0.20;;;;;;;;;;5045804;28;20379;-73
2021/04/13 04:14:13;;;;;;;0.20;0.20;;;;;;;;;;5036947;28;20201;-72
2021/04/13 04:16:40;;;;;;;0.20;0.20;;;;;;;;;;5041474;28;20523;-73
2021/04/13 04:19:14;;;;;;;0.20;0.20;;;;;;;;;;5045459;28;20223;-74
2021/04/13 04:21:41;;;;;;;0.23;0.23;;;;;;;;;;5043894;28;20495;-73
2021/04/13 04:24:09;;;;;;;0.20;0.20;;;;;;;;;;5033933;28;20268;-73
2021/04/13 04:26:40;;;;;;;0.20;0.20;;;;;;;;;;5044032;28;20200;-73
2021/04/13 04:29:17;;;;;;;0.20;0.20;;;;;;;;;;5045047;28;20207;-73
2021/04/13 04:31:44;;;;;;;0.23;0.23;;;;;;;;;;5038776;28;20193;-73
2021/04/13 04:34:29;;;;;;;0.20;0.20;;;;;;;;;;5045125;28;20243;-73
2021/04/13 04:36:55;;;;;;;0.20;0.20;;;;;;;;;;5045084;28;20201;-73
2021/04/13 04:39:22;;;;;;;0.20;0.20;;;;;;;;;;5042806;28;20205;-73
2021/04/13 04:41:48;;;;;;;0.30;0.30;;;;;;;;;;5041421;28;20206;-73
2021/04/13 04:44:19;;;;;;;0.20;0.20;;;;;;;;;;5036603;28;20216;-73
2021/04/13 04:46:45;;;;;;;0.20;0.20;;;;;;;;;;5040145;28;20208;-73
2021/04/13 04:49:12;;;;;;;0.30;0.30;;;;;;;;;;5045021;28;20435;-72
2021/04/13 04:51:38;;;;;;;0.20;0.20;;;;;;;;;;5035260;28;20201;-72
2021/04/13 04:54:04;;;;;;;0.20;0.20;;;;;;;;;;5039934;28;20203;-73
2021/04/13 04:56:30;;;;;;;0.20;0.20;;;;;;;;;;5027123;28;20405;-73
2021/04/13 04:58:56;;;;;;;0.20;0.20;;;;;;;;;;5038765;28;20298;-73
2021/04/13 05:01:22;;;;;;;0.20;0.20;;;;;;;;;;5045117;28;20555;-73
2021/04/13 05:03:48;;;;;;;0.20;0.20;;;;;;;;;;5041936;28;20368;-73
2021/04/13 05:06:14;;;;;;;0.20;0.20;;;;;;;;;;5042991;28;20208;-73
2021/04/13 05:08:40;;;;;;;0.20;0.20;;;;;;;;;;5045129;28;20219;-73
2021/04/13 05:11:06;;;;;;;0.20;0.20;;;;;;;;;;5030900;28;20224;-73
2021/04/13 05:13:32;;;;;;;0.20;0.20;;;;;;;;;;5044525;28;20476;-74
2021/04/13 05:15:58;;;;;;;0.20;0.20;;;;;;;;;;5031903;28;20205;-71
2021/04/13 05:18:24;;;;;;;0.20;0.20;;;;;;;;;;5041646;28;20252;-72
2021/04/13 05:20:50;;;;;;;0.20;0.20;;;;;;;;;;5043932;28;20201;-74
2021/04/13 05:23:16;;;;;;;0.20;0.20;;;;;;;;;;5043966;28;20250;-73
2021/04/13 05:25:42;;;;;;;0.20;0.20;;;;;;;;;;5044448;28;20327;-73
2021/04/13 05:28:08;;;;;;;0.20;0.20;;;;;;;;;;5044356;28;20201;-73
2021/04/13 05:30:34;;;;;;;0.20;0.20;;;;;;;;;;5036420;28;20205;-74
2021/04/13 05:33:00;;;;;;;0.20;0.20;;;;;;;;;;5041841;28;20200;-74
2021/04/13 05:35:26;;;;;;;0.20;0.20;;;;;;;;;;5038149;28;20212;-73
2021/04/13 05:37:52;;;;;;;0.20;0.20;;;;;;;;;;5041533;28;20208;-73
2021/04/13 05:40:20;;;;;;;0.20;0.20;;;;;;;;;;5036883;28;20212;-73
2021/04/13 05:42:47;;;;;;;0.20;0.20;;;;;;;;;;5036634;28;20523;-73
2021/04/13 05:45:14;;;;;;;0.20;0.20;;;;;;;;;;5037661;28;20399;-73
2021/04/13 05:47:40;;;;;;;0.20;0.20;;;;;;;;;;5037127;28;20201;-73
2021/04/13 05:50:07;;;;;;;0.20;0.20;;;;;;;;;;5039751;28;20436;-73
2021/04/13 05:52:33;;;;;;;0.20;0.20;;;;;;;;;;5031229;28;20204;-73
2021/04/13 05:55:02;;;;;;;0.20;0.20;;;;;;;;;;5042206;28;20266;-74
2021/04/13 05:57:29;;;;;;;0.20;0.20;;;;;;;;;;5032633;28;20215;-73
2021/04/13 05:59:56;;;;;;;0.20;0.20;;;;;;;;;;5043829;28;20216;-73
2021/04/13 06:02:22;;;;;;;0.20;0.20;;;;;;;;;;5043585;28;20316;-73
2021/04/13 06:04:49;;;;;;;0.20;0.20;;;;;;;;;;5037841;28;20218;-72
2021/04/13 06:07:15;;;;;;;0.20;0.20;;;;;;;;;;5033261;28;20201;-74
2021/04/13 06:09:41;;;;;;;0.20;0.20;;;;;;;;;;5046780;28;20223;-72
2021/04/13 06:12:08;;;;;;;0.20;0.20;;;;;;;;;;5047750;28;20385;-73
2021/04/13 06:14:34;;;;;;;0.20;0.20;;;;;;;;;;5044794;28;20254;-72
2021/04/13 06:17:00;;;;;;;0.20;0.20;;;;;;;;;;5044630;28;20442;-69
2021/04/13 06:19:26;;;;;;;0.20;0.20;;;;;;;;;;5046402;28;20250;-71
2021/04/13 06:21:51;;;;;;;0.20;0.20;;;;;;;;;;5045876;28;20280;-71
2021/04/13 06:24:17;;;;;;;0.20;0.20;;;;;;;;;;5048003;28;20236;-71
2021/04/13 06:26:43;;;;;;;0.20;0.20;;;;;;;;;;5047145;28;20303;-72
2021/04/13 06:29:10;;;;;;;0.20;0.20;;;;;;;;;;5047971;28;20204;-71
2021/04/13 06:31:35;;;;;;;0.20;0.20;;;;;;;;;;5045662;28;20212;-69
2021/04/13 06:34:01;;;;;;;0.20;0.20;;;;;;;;;;5035404;28;20472;-71
2021/04/13 06:36:28;;;;;;;0.20;0.20;;;;;;;;;;5041645;28;20277;-70
2021/04/13 06:38:54;;;;;;;0.20;0.20;;;;;;;;;;5040269;28;20406;-69
2021/04/13 06:41:38;;;;;;;0.20;0.20;;;;;;;;;;5040371;28;20298;-69
2021/04/13 06:44:12;;;;;;;0.20;0.20;;;;;;;;;;5039523;28;20285;-70
2021/04/13 06:46:41;;;;;;;0.20;0.20;;;;;;;;;;5046806;28;20205;-70
2021/04/13 06:49:16;;;;;;;0.10;0.10;;;;;;;;;;5037251;28;20211;-69
2021/04/13 06:51:48;;;;;;;0.10;0.10;;;;;;;;;;5047660;28;20201;-69
2021/04/13 06:54:19;;;;;;;0.20;0.20;;;;;;;;;;5039667;28;20196;-69
2021/04/13 06:56:51;;;;;;;0.30;0.30;;;;;;;;;;5046381;28;20240;-72
2021/04/13 06:59:39;;;;;;;0.10;0.10;;;;;;;;;;5043223;28;20223;-69
2021/04/13 07:02:11;;;;;;;0.10;0.10;;;;;;;;;;5044971;28;20435;-70
2021/04/13 07:04:40;;;;;;;0.10;0.10;;;;;;;;;;5042253;28;20197;-69
2021/04/13 07:07:12;;;;;;;0.10;0.10;;;;;;;;;;5042287;28;20221;-70
2021/04/13 07:09:39;;;;;;;0.10;0.10;;;;;;;;;;5040452;28;20222;-71
2021/04/13 07:12:07;;;;;;;0.10;0.10;;;;;;;;;;5041846;28;20224;-70
2021/04/13 07:14:36;;;;;;;0.10;0.10;;;;;;;;;;5044519;28;20209;-69
2021/04/13 07:17:04;;;;;;;0.10;0.10;;;;;;;;;;5034345;28;20225;-68
2021/04/13 07:19:32;;;;;;;0.10;0.10;;;;;;;;;;5038155;28;20211;-68
2021/04/13 07:22:01;;;;;;;0.10;0.10;;;;;;;;;;5040157;28;20499;-69
2021/04/13 07:24:29;;;;;;;0.10;0.10;;;;;;;;;;5038928;28;20221;-71
2021/04/13 07:27:00;;;;;;;0.10;0.10;;;;;;;;;;5043110;28;20206;-70
2021/04/13 07:29:28;;;;;;;0.10;0.10;;;;;;;;;;5046660;28;20199;-70
2021/04/13 07:31:58;;;;;;;0.03;0.03;;;;;;;;;;5044016;28;20228;-71
2021/04/13 07:34:24;;;;;;;0.10;0.10;;;;;;;;;;5046012;28;20197;-70
2021/04/13 07:36:54;;;;;;;0.10;0.10;;;;;;;;;;5046024;28;20202;-71
2021/04/13 07:39:21;;;;;;;0.10;0.10;;;;;;;;;;5046145;28;20272;-70
2021/04/13 07:41:50;;;;;;;0.00;0.00;;;;;;;;;;5046712;28;20246;-71
2021/04/13 07:44:19;;;;;;;0.00;0.00;;;;;;;;;;5045661;28;20541;-71
2021/04/13 07:46:46;;;;;;;0.10;0.10;;;;;;;;;;5041248;28;20218;-70
2021/04/13 07:49:15;;;;;;;0.00;0.00;;;;;;;;;;5042587;28;20207;-70
2021/04/13 07:51:43;;;;;;;0.03;0.03;;;;;;;;;;5045726;28;20204;-70
2021/04/13 07:54:16;;;;;;;0.10;0.10;;;;;;;;;;5045466;28;20236;-69
2021/04/13 07:56:44;;;;;;;0.10;0.10;;;;;;;;;;5036646;28;20547;-69
2021/04/13 07:59:17;;;;;;;0.03;0.03;;;;;;;;;;5040922;28;20204;-68
2021/04/13 08:01:44;;;;;;;0.10;0.10;;;;;;;;;;5039393;28;20250;-71
2021/04/13 08:04:10;;;;;;;0.10;0.10;;;;;;;;;;5034948;28;20449;-69
2021/04/13 08:06:51;;;;;;;0.10;0.10;;;;;;;;;;5040035;28;20211;-69
2021/04/13 08:09:35;;;;;;;0.10;0.10;;;;;;;;;;5040348;28;20213;-70
2021/04/13 08:12:13;;;;;;;0.10;0.10;;;;;;;;;;5021037;28;20212;-69
2021/04/13 08:14:40;;;;;;;0.10;0.10;;;;;;;;;;5044372;28;20211;-69
2021/04/13 08:17:11;;;;;;;0.10;0.10;;;;;;;;;;5045082;28;20468;-69
2021/04/13 08:19:37;;;;;;;0.10;0.10;;;;;;;;;;5044997;28;20501;-70
2021/04/13 08:22:05;;;;;;;0.10;0.10;;;;;;;;;;5045282;28;20456;-69
2021/04/13 08:24:36;;;;;;;0.10;0.10;;;;;;;;;;5044901;28;20235;-70
2021/04/13 08:27:12;;;;;;;0.10;0.10;;;;;;;;;;5033763;28;20201;-70
2021/04/13 08:29:47;;;;;;;0.10;0.10;;;;;;;;;;5043512;28;20199;-70
2021/04/13 08:35:04;;;;;;;0.10;0.10;;;;;;;;;;5041574;28;20508;-70
2021/04/13 08:37:34;;;;;;;0.10;0.10;;;;;;;;;;5045122;28;20265;-69
2021/04/13 08:40:10;;;;;;;0.10;0.10;;;;;;;;;;5041263;28;20225;-71
2021/04/13 08:42:45;;;;;;;0.10;0.10;;;;;;;;;;5041744;28;20336;-69
2021/04/13 08:45:17;;;;;;;0.10;0.10;;;;;;;;;;5044520;28;20515;-69
2021/04/13 08:47:46;;;;;;;0.10;0.10;;;;;;;;;;5042443;28;20198;-68
2021/04/13 08:50:20;;;;;;;0.10;0.10;;;;;;;;;;5040680;28;20206;-69
2021/04/13 08:52:53;;;;;;;0.10;0.10;;;;;;;;;;5040704;28;20286;-70
2021/04/13 08:55:21;;;;;;;0.10;0.10;;;;;;;;;;5039897;28;20202;-68
2021/04/13 08:58:00;;;;;;;0.10;0.10;;;;;;;;;;5042422;28;20207;-69
2021/04/13 09:00:39;;;;;;;0.10;0.10;;;;;;;;;;5040779;28;20490;-69
2021/04/13 09:03:06;;;;;;;0.10;0.10;;;;;;;;;;5037525;28;20216;-68
2021/04/13 09:05:35;;;;;;;0.10;0.10;;;;;;;;;;5037642;28;20206;-69
2021/04/13 09:08:03;;;;;;;0.10;0.10;;;;;;;;;;5038073;28;20231;-69
2021/04/13 09:10:33;;;;;;;0.10;0.10;;;;;;;;;;5043459;28;20204;-69
2021/04/13 09:13:04;;;;;;;0.10;0.10;;;;;;;;;;5034311;28;20210;-70
2021/04/13 09:15:31;;;;;;;0.10;0.10;;;;;;;;;;5037591;28;20207;-69
2021/04/13 09:18:01;;;;;;;0.10;0.10;;;;;;;;;;5030224;28;20228;-69
2021/04/13 09:20:36;;;;;;;0.10;0.10;;;;;;;;;;5035945;28;20207;-70
2021/04/13 09:23:09;;;;;;;0.10;0.10;;;;;;;;;;5037892;28;20231;-69
2021/04/13 09:25:36;;;;;;;0.10;0.10;;;;;;;;;;5033653;28;20213;-69
2021/04/13 09:28:08;;;;;;;0.10;0.10;;;;;;;;;;5033133;28;20275;-69
2021/04/13 09:30:36;;;;;;;0.10;0.10;;;;;;;;;;5026903;28;20451;-69
2021/04/13 09:33:13;;;;;;;0.10;0.10;;;;;;;;;;5035431;28;20207;-68
2021/04/13 09:35:58;;;;;;;0.10;0.10;;;;;;;;;;5039457;28;20199;-69
2021/04/13 09:38:32;;;;;;;0.10;0.10;;;;;;;;;;5040354;28;20202;-70
2021/04/13 09:41:06;;;;;;;0.10;0.10;;;;;;;;;;5040175;28;20205;-71
2021/04/13 09:43:47;;;;;;;0.10;0.10;;;;;;;;;;5040808;28;20225;-70
2021/04/13 09:46:30;;;;;;;0.10;0.10;;;;;;;;;;5027142;28;20220;-71
2021/04/13 09:49:08;;;;;;;0.10;0.10;;;;;;;;;;5037877;28;20216;-70
2021/04/13 09:51:41;;;;;;;0.10;0.10;;;;;;;;;;5039641;28;20202;-68
2021/04/13 09:54:11;;;;;;;0.10;0.10;;;;;;;;;;5035784;28;20211;-70
2021/04/13 09:56:55;;;;;;;0.10;0.10;;;;;;;;;;5034439;28;20197;-71
2021/04/13 09:59:30;;;;;;;0.10;0.10;;;;;;;;;;5034654;28;20215;-69
2021/04/13 10:01:59;;;;;;;0.10;0.10;;;;;;;;;;5038450;28;20204;-69
2021/04/13 10:04:52;;;;;;;0.10;0.10;;;;;;;;;;5039957;28;20235;-71
2021/04/13 10:07:23;;;;;;;0.10;0.10;;;;;;;;;;5031141;28;20216;-70
2021/04/13 10:09:50;;;;;;;0.10;0.10;;;;;;;;;;5037206;28;20242;-71
2021/04/13 10:12:34;;;;;;;0.10;0.10;;;;;;;;;;5038352;28;20457;-70
2021/04/13 10:15:19;;;;;;;0.10;0.10;;;;;;;;;;5037261;28;20209;-71
2021/04/13 10:17:57;;;;;;;0.10;0.10;;;;;;;;;;5040947;28;20292;-70
2021/04/13 10:20:31;;;;;;;0.10;0.10;;;;;;;;;;5043645;28;20212;-70
2021/04/13 10:23:15;;;;;;;0.10;0.10;;;;;;;;;;5043698;28;20280;-70
2021/04/13 10:26:08;;;;;;;0.10;0.10;;;;;;;;;;5029267;28;20213;-68
2021/04/13 10:28:54;;;;;;;0.10;0.10;;;;;;;;;;5036892;28;20215;-70
2021/04/13 10:31:36;;;;;;;0.10;0.10;;;;;;;;;;5039879;28;20376;-70
2021/04/13 10:34:30;;;;;;;0.10;0.10;;;;;;;;;;5043149;28;20204;-69
2021/04/13 10:37:23;;;;;;;0.10;0.10;;;;;;;;;;4987027;28;20216;-70
2021/04/13 10:39:56;;;;;;;0.10;0.10;;;;;;;;;;5031430;28;20494;-71
2021/04/13 10:42:46;;;;;;;0.10;0.10;;;;;;;;;;5035432;28;20228;-72
2021/04/13 10:45:27;;;;;;;0.10;0.10;;;;;;;;;;5000149;28;20210;-70
2021/04/13 10:48:09;;;;;;;0.10;0.10;;;;;;;;;;5040221;28;20270;-75
2021/04/13 10:50:49;;;;;;;0.10;0.10;;;;;;;;;;5036374;28;20490;-73
2021/04/13 10:53:19;;;;;;;0.10;0.10;;;;;;;;;;5040319;28;20201;-74
2021/04/13 10:55:56;;;;;;;0.10;0.10;;;;;;;;;;5043009;28;20286;-73
2021/04/13 10:58:48;;;;;;;0.10;0.10;;;;;;;;;;5043701;28;20259;-73
2021/04/13 11:01:30;;;;;;;0.10;0.10;;;;;;;;;;5041728;28;20223;-73
2021/04/13 11:04:14;;;;;;;0.10;0.10;;;;;;;;;;5039219;28;20264;-73
2021/04/13 11:07:15;;;;;;;0.10;0.10;;;;;;;;;;5033781;28;20214;-74
2021/04/13 11:09:47;;;;;;;0.10;0.10;;;;;;;;;;5040468;28;20206;-74
2021/04/13 11:12:31;;;;;;;0.10;0.10;;;;;;;;;;5037818;28;20524;-74
2021/04/13 11:15:08;;;;;;;0.10;0.10;;;;;;;;;;5037859;28;20204;-68
2021/04/13 11:17:55;;;;;;;0.10;0.10;;;;;;;;;;5031971;28;20266;-75
2021/04/13 11:20:30;;;;;;;0.10;0.10;;;;;;;;;;5042298;28;20207;-73
2021/04/13 11:23:08;;;;;;;0.10;0.10;;;;;;;;;;5041294;28;20236;-75
2021/04/13 11:25:58;;;;;;;0.10;0.10;;;;;;;;;;5038848;28;20207;-72
2021/04/13 11:28:35;;;;;;;0.10;0.10;;;;;;;;;;5037349;28;20269;-71
2021/04/13 11:31:20;;;;;;;0.10;0.10;;;;;;;;;;5035187;28;20208;-70
2021/04/13 11:33:56;;;;;;;0.10;0.10;;;;;;;;;;5035707;28;20240;-75
2021/04/13 11:36:32;;;;;;;0.10;0.10;;;;;;;;;;5046656;28;20214;-75
2021/04/13 11:39:01;;;;;;;0.10;0.10;;;;;;;;;;5043128;28;20264;-75
2021/04/13 11:41:44;;;;;;;0.10;0.10;;;;;;;;;;5030290;28;20207;-73
2021/04/13 11:44:11;;;;;;;0.10;0.10;;;;;;;;;;5041263;28;20223;-73
2021/04/13 11:46:49;;;;;;;0.10;0.10;;;;;;;;;;5041250;28;20203;-72
2021/04/13 11:49:18;;;;;;;0.10;0.10;;;;;;;;;;5043738;28;20206;-72
2021/04/13 11:51:49;;;;;;;0.10;0.10;;;;;;;;;;5043746;28;20256;-74
2021/04/13 11:54:33;;;;;;;0.10;0.10;;;;;;;;;;5039004;28;20256;-74
2021/04/13 11:57:01;;;;;;;0.10;0.10;;;;;;;;;;5039633;28;20246;-73
2021/04/13 11:59:27;;;;;;;0.10;0.10;;;;;;;;;;5045788;28;20218;-72
2021/04/13 12:01:56;;;;;;;0.10;0.10;;;;;;;;;;5044080;28;20215;-71
2021/04/13 12:04:24;;;;;;;0.10;0.10;;;;;;;;;;5035055;28;20223;-73
2021/04/13 12:06:57;;;;;;;0.10;0.10;;;;;;;;;;5045841;28;20220;-71
2021/04/13 12:09:36;;;;;;;0.10;0.10;;;;;;;;;;5041637;28;20267;-71
2021/04/13 12:12:03;;;;;;;0.10;0.10;;;;;;;;;;5040557;28;20215;-71
2021/04/13 12:14:35;;;;;;;0.10;0.10;;;;;;;;;;5037736;28;20487;-71
2021/04/13 12:17:04;;;;;;;0.10;0.10;;;;;;;;;;5036121;28;20509;-73
2021/04/13 12:19:30;;;;;;;0.10;0.10;;;;;;;;;;5033848;28;20245;-74
2021/04/13 12:21:57;;;;;;;0.10;0.10;;;;;;;;;;5039645;28;20431;-72
2021/04/13 12:24:42;;;;;;;0.10;0.10;;;;;;;;;;5041114;28;20223;-73
2021/04/13 12:27:27;;;;;;;0.10;0.10;;;;;;;;;;5035663;28;20195;-71
2021/04/13 12:30:03;;;;;;;0.10;0.10;;;;;;;;;;5043075;28;20254;-71
2021/04/13 12:32:40;;;;;;;0.10;0.10;;;;;;;;;;5031299;28;20217;-72
2021/04/13 12:35:06;;;;;;;0.10;0.10;;;;;;;;;;5035212;28;20268;-72
2021/04/13 12:37:34;;;;;;;0.10;0.10;;;;;;;;;;5039723;28;20198;-72
2021/04/13 12:40:00;;;;;;;0.10;0.10;;;;;;;;;;5042513;28;20269;-75
2021/04/13 12:42:38;;;;;;;0.10;0.10;;;;;;;;;;5041655;28;20287;-72
2021/04/13 12:45:23;;;;;;;0.10;0.10;;;;;;;;;;5043062;28;20363;-73
2021/04/13 12:47:51;;;;;;;0.10;0.10;;;;;;;;;;5037525;28;20217;-73
2021/04/13 12:50:21;;;;;;;0.10;0.10;;;;;;;;;;5030974;28;20482;-72
2021/04/13 12:52:47;;;;;;;0.10;0.10;;;;;;;;;;5043206;28;20390;-72
2021/04/13 12:55:14;;;;;;;0.10;0.10;;;;;;;;;;5033080;28;20274;-74
2021/04/13 12:57:50;;;;;;;0.10;0.10;;;;;;;;;;5043490;28;20215;-73
2021/04/13 13:00:17;;;;;;;0.10;0.10;;;;;;;;;;5043859;28;20274;-72
2021/04/13 13:02:44;;;;;;;0.10;0.10;;;;;;;;;;5027718;28;20207;-72
2021/04/13 13:05:18;;;;;;;0.10;0.10;;;;;;;;;;5043149;28;20213;-72
2021/04/13 13:07:50;;;;;;;0.10;0.10;;;;;;;;;;5033223;28;20236;-71
2021/04/13 13:10:16;;;;;;;0.10;0.10;;;;;;;;;;5037219;28;20333;-72
2021/04/13 13:12:42;;;;;;;0.10;0.10;;;;;;;;;;5039824;28;20512;-71
2021/04/13 13:15:09;;;;;;;0.10;0.10;;;;;;;;;;5040331;28;20207;-72
2021/04/13 13:17:38;;;;;;;0.10;0.10;;;;;;;;;;5034516;28;20252;-72
2021/04/13 13:20:07;;;;;;;0.10;0.10;;;;;;;;;;5038884;28;20429;-72
2021/04/13 13:22:34;;;;;;;0.10;0.10;;;;;;;;;;5043893;28;20232;-73
2021/04/13 13:25:11;;;;;;;0.10;0.10;;;;;;;;;;5028702;28;20206;-73
2021/04/13 13:27:37;;;;;;;0.10;0.10;;;;;;;;;;5035209;28;20225;-73
2021/04/13 13:30:06;;;;;;;0.10;0.10;;;;;;;;;;5039785;28;20223;-73
2021/04/13 13:32:34;;;;;;;0.10;0.10;;;;;;;;;;5043920;28;20208;-73
2021/04/13 13:35:01;;;;;;;0.10;0.10;;;;;;;;;;5043028;28;20385;-72
2021/04/13 13:37:28;;;;;;;0.10;0.10;;;;;;;;;;5036502;28;20208;-73
2021/04/13 13:39:55;;;;;;;0.10;0.10;;;;;;;;;;5043604;28;20446;-73
2021/04/13 13:42:21;;;;;;;0.10;0.10;;;;;;;;;;5031005;28;20198;-74
2021/04/13 13:44:48;;;;;;;0.10;0.10;;;;;;;;;;5041271;28;20230;-74
2021/04/13 13:47:23;;;;;;;0.10;0.10;;;;;;;;;;5029808;28;20272;-74
2021/04/13 13:49:51;;;;;;;0.10;0.10;;;;;;;;;;5034258;28;20448;-73
2021/04/13 13:52:32;;;;;;;0.10;0.10;;;;;;;;;;5027572;28;20202;-73
2021/04/13 13:55:05;;;;;;;0.10;0.10;;;;;;;;;;5042011;28;20202;-73
2021/04/13 13:57:33;;;;;;;0.10;0.10;;;;;;;;;;5038805;28;20202;-73
2021/04/13 14:03:06;;;;;;;0.10;0.10;;;;;;;;;;5040903;28;20249;-71
2021/04/13 14:05:35;;;;;;;0.10;0.10;;;;;;;;;;5042475;28;20215;-74
2021/04/13 14:08:05;;;;;;;0.10;0.10;;;;;;;;;;5041153;28;20211;-73
2021/04/13 14:10:33;;;;;;;0.10;0.10;;;;;;;;;;5042319;28;20280;-71
2021/04/13 14:13:12;;;;;;;0.10;0.10;;;;;;;;;;5039476;28;20530;-71
2021/04/13 14:15:38;;;;;;;0.33;0.33;;;;;;;;;;5043033;28;20208;-71
2021/04/13 14:18:10;;;;;;;0.10;0.10;;;;;;;;;;5037761;28;20228;-71
2021/04/13 14:20:51;;;;;;;0.10;0.10;;;;;;;;;;5034191;28;20495;-77
2021/04/13 14:23:20;;;;;;;0.10;0.10;;;;;;;;;;5038609;28;20272;-73
2021/04/13 14:25:46;;;;;;;0.10;0.10;;;;;;;;;;5033692;28;20251;-74
2021/04/13 14:28:19;;;;;;;0.10;0.10;;;;;;;;;;5042684;28;20226;-73
2021/04/13 14:30:45;;;;;;;0.10;0.10;;;;;;;;;;5039354;28;20210;-73
2021/04/13 14:33:12;;;;;;;0.10;0.10;;;;;;;;;;5044549;28;20200;-73
2021/04/13 14:35:39;;;;;;;0.10;0.10;;;;;;;;;;5043704;28;20206;-71
2021/04/13 14:38:08;;;;;;;0.10;0.10;;;;;;;;;;5044466;28;20240;-73
2021/04/13 14:40:35;;;;;;;0.10;0.10;;;;;;;;;;5045668;28;20461;-72
2021/04/13 14:43:01;;;;;;;0.10;0.10;;;;;;;;;;5045621;28;20205;-72
2021/04/13 14:45:27;;;;;;;0.10;0.10;;;;;;;;;;5046289;28;20212;-73
2021/04/13 14:47:54;;;;;;;0.10;0.10;;;;;;;;;;5039941;28;20268;-73
2021/04/13 14:50:23;;;;;;;0.20;0.20;;;;;;;;;;5031007;28;20262;-73
2021/04/13 14:52:50;;;;;;;0.10;0.10;;;;;;;;;;5044295;28;20282;-72
2021/04/13 14:55:17;;;;;;;0.10;0.10;;;;;;;;;;5044712;28;20275;-73
2021/04/13 14:57:44;;;;;;;0.10;0.10;;;;;;;;;;5044370;28;20228;-73
2021/04/13 15:00:12;;;;;;;0.10;0.10;;;;;;;;;;5034709;28;20233;-73
2021/04/13 15:02:38;;;;;;;0.10;0.10;;;;;;;;;;5040232;28;20202;-74
2021/04/13 15:05:04;;;;;;;0.10;0.10;;;;;;;;;;5035919;28;20232;-74
2021/04/13 15:07:31;;;;;;;0.10;0.10;;;;;;;;;;5040637;28;20212;-72
2021/04/13 15:09:57;;;;;;;0.10;0.10;;;;;;;;;;5040299;28;20214;-72